createdAt,value
2023-04-14T00:02:41.316Z,6.62
2023-04-14T00:09:01.630Z,6.57
2023-04-14T00:15:24.268Z,6.56
2023-04-14T00:21:44.235Z,6.45
2023-04-14T00:28:07.338Z,6.32
2023-04-14T00:34:27.195Z,6.14
2023-04-14T00:40:50.177Z,5.96
2023-04-14T00:47:10.313Z,5.94
2023-04-14T00:53:33.218Z,5.86
2023-04-14T00:59:53.217Z,5.76
2023-04-14T01:06:16.256Z,5.65
2023-04-14T01:12:36.306Z,5.64
2023-04-14T01:18:59.487Z,5.59
2023-04-14T01:25:19.288Z,5.59
2023-04-14T01:31:42.333Z,5.59
2023-04-14T01:38:02.218Z,5.54
2023-04-14T01:44:25.242Z,5.42
2023-04-14T01:50:45.312Z,5.34
2023-04-14T01:57:08.173Z,5.28
2023-04-14T02:03:28.366Z,5.19
2023-04-14T02:09:51.310Z,5.15
2023-04-14T02:16:11.268Z,5.12
2023-04-14T02:22:34.157Z,5.08
2023-04-14T02:28:54.198Z,5.04
2023-04-14T02:35:17.140Z,4.98
2023-04-14T02:41:37.235Z,4.87
2023-04-14T02:48:00.248Z,4.78
2023-04-14T02:54:20.160Z,4.65
2023-04-14T03:00:43.143Z,4.58
2023-04-14T03:07:03.226Z,4.51
2023-04-14T03:29:51.253Z,4.26
2023-04-14T03:36:14.272Z,4.14
2023-04-14T03:42:34.264Z,4.1
2023-04-14T03:48:57.302Z,4.09
2023-04-14T03:55:17.200Z,4.04
2023-04-14T04:01:40.275Z,4
2023-04-14T04:08:00.290Z,4.01
2023-04-14T04:14:23.222Z,4.01
2023-04-14T04:20:43.266Z,3.91
2023-04-14T04:27:08.133Z,3.82
2023-04-14T04:33:26.172Z,3.76
2023-04-14T04:39:49.187Z,3.7
2023-04-14T04:46:09.293Z,3.6
2023-04-14T04:52:32.220Z,3.58
2023-04-14T04:58:52.168Z,3.61
2023-04-14T05:05:15.254Z,3.56
2023-04-14T05:11:35.213Z,3.53
2023-04-14T05:17:58.291Z,3.54
2023-04-14T05:24:18.252Z,3.58
2023-04-14T05:30:41.237Z,3.56
2023-04-14T05:37:01.202Z,3.59
2023-04-14T05:43:24.191Z,3.62
2023-04-14T05:49:44.237Z,3.64
2023-04-14T05:56:07.211Z,3.66
2023-04-14T06:02:27.436Z,3.72
2023-04-14T06:08:50.210Z,3.87
2023-04-14T06:15:10.150Z,4.08
2023-04-14T06:21:33.250Z,4.3
2023-04-14T06:27:53.226Z,4.51
2023-04-14T06:34:16.248Z,4.69
2023-04-14T06:40:36.263Z,4.91
2023-04-14T06:46:59.185Z,5.1
2023-04-14T06:53:19.182Z,5.32
2023-04-14T06:59:42.305Z,5.56
2023-04-14T07:06:02.183Z,5.83
2023-04-14T07:12:25.184Z,6.05
2023-04-14T07:18:45.192Z,6.3
2023-04-14T07:25:08.231Z,6.55
2023-04-14T07:31:28.360Z,6.8
2023-04-14T07:37:51.216Z,7.07
2023-04-14T07:44:11.273Z,7.28
2023-04-14T07:50:34.223Z,7.49
2023-04-14T07:56:54.223Z,7.77
2023-04-14T08:03:17.323Z,8.09
2023-04-14T08:09:37.175Z,8.39
2023-04-14T08:25:11.130Z,9.21
2023-04-14T08:31:31.205Z,9.65
2023-04-14T08:37:54.190Z,10.02
2023-04-14T08:44:14.284Z,10.46
2023-04-14T08:50:37.208Z,10.86
2023-04-14T08:56:57.199Z,11.27
2023-04-14T09:03:20.370Z,11.61
2023-04-14T09:09:40.215Z,11.96
2023-04-14T09:16:03.260Z,12.19
2023-04-14T09:22:23.231Z,12.48
2023-04-14T09:28:46.214Z,12.88
2023-04-14T09:35:06.151Z,13.23
2023-04-14T09:41:29.228Z,13.48
2023-04-14T09:47:49.228Z,13.67
2023-04-14T09:54:12.186Z,13.72
2023-04-14T10:00:32.209Z,13.73
2023-04-14T10:06:55.241Z,14.03
2023-04-14T10:13:15.217Z,14.4
2023-04-14T10:19:38.262Z,14.76
2023-04-14T10:25:58.205Z,14.6
2023-04-14T10:32:21.214Z,14.27
2023-04-14T10:38:41.268Z,14.31
2023-04-14T10:45:04.210Z,14.94
2023-04-14T10:51:24.204Z,15.56
2023-04-14T10:57:47.198Z,16
2023-04-14T11:04:07.303Z,16.51
2023-04-14T11:10:30.184Z,16.73
2023-04-14T11:17:02.427Z,16.51
2023-04-14T11:23:13.205Z,16.77
2023-04-14T11:29:33.186Z,17.12
2023-04-14T11:35:56.209Z,17.62
2023-04-14T11:42:16.172Z,18.19
2023-04-14T11:48:39.196Z,18.6
2023-04-14T11:54:59.239Z,18.71
2023-04-14T12:01:22.164Z,18.95
2023-04-14T12:07:42.168Z,19.04
2023-04-14T12:14:05.216Z,19.38
2023-04-14T12:20:25.156Z,19.54
2023-04-14T12:26:48.217Z,19.34
2023-04-14T12:33:08.181Z,18.44
2023-04-14T12:39:31.187Z,18.4
2023-04-14T12:45:51.193Z,18.73
2023-04-14T12:52:14.207Z,19.2
2023-04-14T12:58:34.183Z,19.61
2023-04-14T13:04:57.178Z,19.74
2023-04-14T13:11:17.197Z,19.89
2023-04-14T13:17:40.188Z,20.05
2023-04-14T13:24:00.179Z,19.72
2023-04-14T13:30:23.194Z,19.38
2023-04-14T13:36:43.162Z,19.38
2023-04-14T13:43:06.210Z,19.63
2023-04-14T13:59:31.082Z,19.73
2023-04-14T14:05:51.180Z,19.3
2023-04-14T14:12:14.157Z,18.69
2023-04-14T14:18:34.281Z,18.39
2023-04-14T14:25:07.209Z,18.54
2023-04-14T14:31:17.203Z,18.44
2023-04-14T14:37:40.192Z,18.6
2023-04-14T14:44:01.694Z,18.37
2023-04-14T14:50:24.238Z,18.15
2023-04-14T14:56:51.132Z,17.77
2023-04-14T15:03:14.238Z,18.05
2023-04-14T15:09:34.115Z,18.87
2023-04-14T15:15:57.176Z,19.64
2023-04-14T15:22:17.181Z,20.14
2023-04-14T15:28:40.167Z,19.73
2023-04-14T15:35:00.491Z,19.26
2023-04-14T15:41:23.232Z,18.78
2023-04-14T15:47:43.266Z,18.83
2023-04-14T15:54:06.208Z,19.36
2023-04-14T16:00:26.216Z,19.56
2023-04-14T16:06:49.195Z,19.4
2023-04-14T16:13:09.195Z,19.43
2023-04-14T16:19:32.197Z,19.94
2023-04-14T16:25:52.213Z,20.17
2023-04-14T16:32:15.206Z,20.17
2023-04-14T16:38:35.226Z,19.7
2023-04-14T16:44:58.192Z,19.57
2023-04-14T16:51:18.245Z,19.54
2023-04-14T16:57:41.178Z,19.81
2023-04-14T17:04:01.398Z,20.01
2023-04-14T17:10:24.283Z,19.72
2023-04-14T17:16:44.209Z,19.49
2023-04-14T17:23:07.250Z,19.22
2023-04-14T17:29:27.255Z,18.88
2023-04-14T17:35:50.154Z,18.55
2023-04-14T17:42:10.317Z,17.92
2023-04-14T17:48:33.162Z,17.26
2023-04-14T17:54:53.236Z,16.5
2023-04-14T18:01:16.190Z,15.98
2023-04-14T18:07:36.266Z,15.5
2023-04-14T18:13:59.462Z,15.21
2023-04-14T18:20:19.171Z,15.03
2023-04-14T18:26:42.261Z,14.85
2023-04-14T18:33:02.188Z,14.6
2023-04-14T18:39:25.265Z,14.39
2023-04-14T18:45:45.240Z,14.06
2023-04-14T18:52:08.213Z,13.72
2023-04-14T18:58:28.237Z,13.38
2023-04-14T19:04:51.299Z,13.07
2023-04-14T19:28:15.107Z,12.3
2023-04-14T19:34:35.153Z,12.07
2023-04-14T19:40:58.206Z,11.82
2023-04-14T19:47:18.227Z,11.56
2023-04-14T19:53:41.186Z,11.35
2023-04-14T20:00:01.179Z,11.13
2023-04-14T20:06:24.181Z,10.89
2023-04-14T20:12:44.219Z,10.63
2023-04-14T20:19:07.191Z,10.43
2023-04-14T20:25:27.200Z,10.29
2023-04-14T20:31:50.188Z,10.14
2023-04-14T20:38:10.192Z,10.06
2023-04-14T20:44:33.239Z,9.95
2023-04-14T20:50:53.185Z,9.85
2023-04-14T20:57:16.179Z,9.72
2023-04-14T21:03:36.409Z,9.57
2023-04-14T21:09:59.213Z,9.42
2023-04-14T21:16:19.298Z,9.3
2023-04-14T21:22:42.219Z,9.2
2023-04-14T21:29:02.434Z,9
2023-04-14T21:35:25.237Z,8.75
2023-04-14T21:41:45.186Z,8.68
2023-04-14T21:48:08.228Z,8.65
2023-04-14T21:54:28.288Z,8.6
2023-04-14T22:20:02.168Z,7.98
2023-04-14T22:26:22.179Z,7.92
2023-04-14T22:32:45.191Z,7.91
2023-04-14T22:39:05.271Z,7.89
2023-04-14T22:45:28.240Z,7.85
2023-04-14T22:51:48.170Z,7.78
2023-04-14T22:58:11.227Z,7.71
2023-04-14T23:04:31.246Z,7.52
2023-04-14T23:10:54.280Z,7.29
2023-04-14T23:17:14.233Z,7.17
2023-04-14T23:23:37.230Z,7.16
2023-04-14T23:29:57.209Z,7.07
2023-04-14T23:36:20.308Z,6.96
2023-04-14T23:42:40.175Z,6.87
2023-04-14T23:49:22.144Z,6.82
2023-04-14T23:55:23.261Z,6.75
